Time;durP1;ratioP1;P1;durP2;ratioP2;P2;SDS_P1;SDS_P2;PMS_P1;PMS_P2;Temp;Humidity;BMP_temperature;BMP_pressure;BME280_temperature;BME280_humidity;BME280_pressure;Samples;Min_cycle;Max_cycle;Signal;HPM_P1;HPM_P2
2023/05/24 00:02:25;;;;;;;;;;;14.90;69.30;;;;;;5087435;28;19985;-71
2023/05/24 00:04:51;;;;;;;;;;;14.90;69.30;;;;;;5087947;28;19920;-71
2023/05/24 00:07:17;;;;;;;;;;;14.90;69.30;;;;;;5087834;28;19914;-71
2023/05/24 00:09:43;;;;;;;;;;;14.90;69.30;;;;;;5087789;28;20003;-71
2023/05/24 00:12:08;;;;;;;;;;;14.90;69.20;;;;;;5090060;28;20194;-71
2023/05/24 00:14:34;;;;;;;;;;;14.90;69.30;;;;;;5091542;28;20015;-71
2023/05/24 00:17:00;;;;;;;;;;;15.00;69.40;;;;;;5091619;28;19915;-71
2023/05/24 00:19:26;;;;;;;;;;;15.10;69.30;;;;;;5091326;28;19923;-71
2023/05/24 00:21:51;;;;;;;;;;;15.20;69.20;;;;;;5089971;28;19960;-71
2023/05/24 00:24:17;;;;;;;;;;;15.20;69.10;;;;;;5091219;28;20002;-71
2023/05/24 00:26:43;;;;;;;;;;;15.10;69.00;;;;;;5091354;28;19916;-71
2023/05/24 00:29:09;;;;;;;;;;;15.00;69.00;;;;;;5091180;28;19908;-71
2023/05/24 00:31:34;;;;;;;;;;;15.00;69.00;;;;;;5091079;28;19908;-71
2023/05/24 00:34:00;;;;;;;;;;;15.00;69.00;;;;;;5089786;28;19919;-71
2023/05/24 00:36:25;;;;;;;;;;;14.90;69.00;;;;;;5091152;28;20419;-71
2023/05/24 00:38:52;;;;;;;;;;;14.90;68.90;;;;;;5091069;28;19922;-71
2023/05/24 00:41:18;;;;;;;;;;;14.90;68.90;;;;;;5091137;28;20382;-71
2023/05/24 00:43:43;;;;;;;;;;;14.90;68.70;;;;;;5090953;28;19912;-71
2023/05/24 00:46:15;;;;;;;;;;;14.80;68.50;;;;;;5091030;28;19912;-71
2023/05/24 00:48:41;;;;;;;;;;;14.80;68.50;;;;;;5090909;28;19908;-71
2023/05/24 00:51:07;;;;;;;;;;;14.70;68.50;;;;;;5090933;28;19908;-71
2023/05/24 00:53:34;;;;;;;;;;;14.70;68.40;;;;;;5089429;28;19916;-71
2023/05/24 00:56:00;;;;;;;;;;;14.70;68.40;;;;;;5090808;28;20249;-71
2023/05/24 00:58:29;;;;;;;;;;;14.70;68.50;;;;;;5090743;28;19916;-71
2023/05/24 01:00:58;;;;;;;;;;;14.60;68.40;;;;;;5090649;28;19919;-71
2023/05/24 01:03:27;;;;;;;;;;;14.60;68.40;;;;;;5090369;28;20265;-71
2023/05/24 01:06:01;;;;;;;;;;;14.50;68.30;;;;;;5089150;28;19943;-71
2023/05/24 01:08:46;;;;;;;;;;;14.50;68.30;;;;;;5090575;28;20288;-71
2023/05/24 01:11:12;;;;;;;;;;;14.40;68.30;;;;;;5090076;28;19912;-71
2023/05/24 01:13:37;;;;;;;;;;;14.40;68.30;;;;;;5090438;28;20007;-71
2023/05/24 01:16:10;;;;;;;;;;;14.40;68.30;;;;;;5090476;28;19908;-71
2023/05/24 01:18:43;;;;;;;;;;;14.30;68.20;;;;;;5090208;28;19912;-71
2023/05/24 01:21:11;;;;;;;;;;;14.30;68.20;;;;;;5090209;28;19931;-71
2023/05/24 01:24:06;;;;;;;;;;;14.20;68.30;;;;;;5088289;28;19916;-71
2023/05/24 01:26:50;;;;;;;;;;;14.20;68.40;;;;;;5052401;28;19913;-71
2023/05/24 01:29:16;;;;;;;;;;;14.10;68.40;;;;;;5090031;28;19908;-71
2023/05/24 01:31:42;;;;;;;;;;;14.10;68.30;;;;;;5090021;28;20273;-71
2023/05/24 01:34:08;;;;;;;;;;;14.10;68.30;;;;;;5089904;28;20313;-71
2023/05/24 01:36:33;;;;;;;;;;;14.10;68.20;;;;;;5089922;28;19912;-71
2023/05/24 01:38:59;;;;;;;;;;;14.10;68.20;;;;;;5089990;28;20007;-71
2023/05/24 01:41:30;;;;;;;;;;;14.00;68.10;;;;;;5089790;28;19908;-71
2023/05/24 01:44:22;;;;;;;;;;;14.00;68.10;;;;;;5089661;28;19909;-71
2023/05/24 01:46:52;;;;;;;;;;;13.90;68.10;;;;;;5089672;28;19908;-71
2023/05/24 01:49:22;;;;;;;;;;;13.90;68.20;;;;;;5089809;28;20292;-71
2023/05/24 01:51:57;;;;;;;;;;;13.90;68.20;;;;;;5089498;28;20298;-71
2023/05/24 01:54:24;;;;;;;;;;;13.80;68.20;;;;;;5089619;28;19916;-71
2023/05/24 01:56:51;;;;;;;;;;;13.80;68.70;;;;;;5089573;28;19977;-71
2023/05/24 01:59:17;;;;;;;;;;;13.70;68.20;;;;;;5089504;28;20133;-71
2023/05/24 02:01:43;;;;;;;;;;;13.70;68.20;;;;;;5089313;28;20003;-71
2023/05/24 02:04:09;;;;;;;;;;;13.60;68.10;;;;;;5089539;28;19912;-71
2023/05/24 02:06:34;;;;;;;;;;;13.60;68.10;;;;;;5089240;28;19917;-71
2023/05/24 02:09:00;;;;;;;;;;;13.50;68.10;;;;;;5089751;28;19953;-71
2023/05/24 02:11:26;;;;;;;;;;;13.50;68.10;;;;;;5089058;28;20276;-71
2023/05/24 02:13:52;;;;;;;;;;;13.40;68.00;;;;;;5088998;28;20276;-71
2023/05/24 02:16:17;;;;;;;;;;;13.40;68.00;;;;;;5089060;28;19912;-71
2023/05/24 02:18:45;;;;;;;;;;;13.40;68.10;;;;;;5088884;28;19916;-71
2023/05/24 02:21:11;;;;;;;;;;;13.30;68.10;;;;;;5089071;28;20017;-71
2023/05/24 02:23:37;;;;;;;;;;;13.30;68.20;;;;;;5089009;28;20007;-71
2023/05/24 02:26:02;;;;;;;;;;;13.30;68.20;;;;;;5070829;28;20002;-71
2023/05/24 02:28:31;;;;;;;;;;;13.20;68.10;;;;;;5089096;28;19919;-71
2023/05/24 02:30:56;;;;;;;;;;;13.20;68.00;;;;;;5088828;28;19931;-71
2023/05/24 02:33:24;;;;;;;;;;;13.20;68.00;;;;;;5088017;28;20435;-71
2023/05/24 02:35:50;;;;;;;;;;;13.10;67.90;;;;;;5070418;28;19916;-71
2023/05/24 02:38:15;;;;;;;;;;;13.10;68.00;;;;;;5088565;28;20407;-71
2023/05/24 02:40:41;;;;;;;;;;;13.00;67.90;;;;;;5088920;28;19916;-71
2023/05/24 02:43:08;;;;;;;;;;;13.00;68.00;;;;;;5087143;28;19939;-71
2023/05/24 02:45:35;;;;;;;;;;;12.90;68.00;;;;;;5087447;28;19935;-71
2023/05/24 02:48:01;;;;;;;;;;;12.90;68.00;;;;;;5088576;28;19922;-71
2023/05/24 02:50:26;;;;;;;;;;;12.90;68.10;;;;;;5088517;28;19930;-71
2023/05/24 02:52:52;;;;;;;;;;;12.80;68.10;;;;;;5087130;28;20334;-71
2023/05/24 02:55:17;;;;;;;;;;;12.80;68.00;;;;;;5088719;28;19955;-71
2023/05/24 02:57:43;;;;;;;;;;;12.80;68.00;;;;;;5088401;28;19958;-71
2023/05/24 03:00:10;;;;;;;;;;;12.80;68.00;;;;;;5088300;28;19962;-70
2023/05/24 03:02:39;;;;;;;;;;;12.80;68.00;;;;;;5088100;28;19921;-71
2023/05/24 03:05:05;;;;;;;;;;;12.80;68.00;;;;;;5086916;28;19916;-71
2023/05/24 03:07:31;;;;;;;;;;;12.70;68.00;;;;;;5088492;28;19912;-71
2023/05/24 03:09:57;;;;;;;;;;;12.70;68.00;;;;;;5088394;28;19972;-71
2023/05/24 03:12:22;;;;;;;;;;;12.70;68.00;;;;;;5086936;28;19969;-71
2023/05/24 03:14:48;;;;;;;;;;;12.60;67.90;;;;;;5088373;28;19919;-71
2023/05/24 03:17:13;;;;;;;;;;;12.60;68.00;;;;;;5087010;28;19918;-71
2023/05/24 03:19:39;;;;;;;;;;;12.60;68.00;;;;;;5088053;28;19927;-71
2023/05/24 03:22:05;;;;;;;;;;;12.60;68.00;;;;;;5088183;28;19965;-71
2023/05/24 03:24:32;;;;;;;;;;;12.60;68.00;;;;;;5088065;28;19916;-71
2023/05/24 03:26:57;;;;;;;;;;;12.50;68.00;;;;;;5088208;28;20367;-71
2023/05/24 03:29:23;;;;;;;;;;;12.40;67.90;;;;;;5088104;28;19917;-71
2023/05/24 03:31:49;;;;;;;;;;;12.40;67.90;;;;;;5086651;28;20202;-70
2023/05/24 03:34:14;;;;;;;;;;;12.40;68.00;;;;;;5088065;28;20447;-71
2023/05/24 03:36:40;;;;;;;;;;;12.40;68.00;;;;;;5088048;28;19919;-71
2023/05/24 03:39:06;;;;;;;;;;;12.30;68.00;;;;;;5086499;28;19924;-71
2023/05/24 03:41:32;;;;;;;;;;;12.30;68.10;;;;;;5086974;28;20560;-71
2023/05/24 03:43:58;;;;;;;;;;;12.30;68.50;;;;;;5088070;28;19912;-71
2023/05/24 03:46:24;;;;;;;;;;;12.30;68.10;;;;;;5091141;28;19908;-71
2023/05/24 03:48:49;;;;;;;;;;;12.30;68.10;;;;;;5092037;28;19915;-71
2023/05/24 03:51:15;;;;;;;;;;;12.30;68.10;;;;;;5092035;28;19916;-70
2023/05/24 03:53:40;;;;;;;;;;;12.30;68.10;;;;;;5091800;28;19958;-71
2023/05/24 03:56:06;;;;;;;;;;;12.30;68.10;;;;;;5091964;28;20637;-71
2023/05/24 03:58:32;;;;;;;;;;;12.30;68.10;;;;;;5091688;28;20287;-71
2023/05/24 04:00:57;;;;;;;;;;;12.20;68.10;;;;;;5091912;28;19912;-71
2023/05/24 04:03:24;;;;;;;;;;;12.20;68.10;;;;;;5091278;28;20379;-71
2023/05/24 04:05:50;;;;;;;;;;;12.20;68.10;;;;;;5091566;28;19954;-71
2023/05/24 04:08:16;;;;;;;;;;;12.20;68.10;;;;;;5091746;28;20004;-71
2023/05/24 04:10:41;;;;;;;;;;;12.10;68.10;;;;;;5091675;28;19920;-71
2023/05/24 04:13:07;;;;;;;;;;;12.10;68.10;;;;;;5091573;28;19912;-71
2023/05/24 04:15:33;;;;;;;;;;;12.10;68.10;;;;;;5091545;28;19997;-71
2023/05/24 04:17:59;;;;;;;;;;;12.10;68.20;;;;;;5091545;28;19912;-71
2023/05/24 04:20:26;;;;;;;;;;;12.10;68.20;;;;;;5091472;28;19966;-71
2023/05/24 04:22:52;;;;;;;;;;;12.10;68.20;;;;;;5091303;28;19912;-71
2023/05/24 04:25:17;;;;;;;;;;;12.10;68.20;;;;;;5091403;28;20382;-71
2023/05/24 04:27:43;;;;;;;;;;;12.10;68.20;;;;;;5091326;28;20354;-71
2023/05/24 04:30:09;;;;;;;;;;;12.10;68.20;;;;;;5091365;28;19912;-71
2023/05/24 04:32:35;;;;;;;;;;;12.10;68.20;;;;;;5091288;28;20337;-71
2023/05/24 04:35:04;;;;;;;;;;;12.10;68.10;;;;;;5091364;28;19908;-71
2023/05/24 04:37:30;;;;;;;;;;;12.10;68.10;;;;;;5091125;28;19954;-71
2023/05/24 04:39:56;;;;;;;;;;;12.10;68.10;;;;;;5090862;28;19916;-71
2023/05/24 04:42:22;;;;;;;;;;;12.10;68.10;;;;;;5090860;28;19977;-71
2023/05/24 04:44:47;;;;;;;;;;;12.10;68.10;;;;;;5090828;28;19930;-71
2023/05/24 04:47:13;;;;;;;;;;;12.00;68.00;;;;;;5090921;28;19998;-71
2023/05/24 04:49:39;;;;;;;;;;;12.10;68.10;;;;;;5090671;28;19919;-71
2023/05/24 04:52:05;;;;;;;;;;;12.00;68.00;;;;;;5090534;28;19916;-71
2023/05/24 04:54:32;;;;;;;;;;;12.10;68.10;;;;;;5090482;28;19908;-71
2023/05/24 04:56:57;;;;;;;;;;;12.00;68.10;;;;;;5088267;28;19908;-71
2023/05/24 04:59:23;;;;;;;;;;;12.00;68.10;;;;;;5090179;28;19938;-71
2023/05/24 05:01:49;;;;;;;;;;;12.00;68.10;;;;;;5090145;28;19959;-71
2023/05/24 05:04:15;;;;;;;;;;;12.00;68.10;;;;;;5089099;28;19977;-71
2023/05/24 05:06:43;;;;;;;;;;;12.00;68.10;;;;;;5089378;28;19908;-71
2023/05/24 05:09:11;;;;;;;;;;;12.00;68.00;;;;;;5090439;28;20253;-71
2023/05/24 05:11:37;;;;;;;;;;;12.10;68.10;;;;;;5090255;28;19911;-71
2023/05/24 05:14:03;;;;;;;;;;;12.10;68.10;;;;;;5090211;28;19909;-71
2023/05/24 05:16:29;;;;;;;;;;;12.00;68.10;;;;;;5090409;28;20368;-71
2023/05/24 05:18:54;;;;;;;;;;;12.10;68.10;;;;;;5090191;28;19989;-71
2023/05/24 05:21:20;;;;;;;;;;;12.20;68.10;;;;;;5090539;28;19913;-71
2023/05/24 05:23:46;;;;;;;;;;;12.20;68.10;;;;;;5090159;28;19912;-71
2023/05/24 05:26:11;;;;;;;;;;;12.20;68.10;;;;;;5090076;28;19919;-71
2023/05/24 05:28:37;;;;;;;;;;;12.30;68.20;;;;;;5089999;28;20003;-71
2023/05/24 05:31:02;;;;;;;;;;;12.30;68.20;;;;;;5088600;28;20287;-71
2023/05/24 05:33:30;;;;;;;;;;;12.40;68.10;;;;;;5089729;28;19908;-71
2023/05/24 05:35:55;;;;;;;;;;;12.40;68.10;;;;;;5089742;28;19912;-71
2023/05/24 05:38:21;;;;;;;;;;;12.40;68.10;;;;;;5089908;28;19916;-74
2023/05/24 05:40:47;;;;;;;;;;;12.50;68.10;;;;;;5089512;28;19935;-74
2023/05/24 05:43:12;;;;;;;;;;;12.50;68.10;;;;;;5089716;28;20287;-75
2023/05/24 05:45:38;;;;;;;;;;;12.50;68.10;;;;;;5089523;28;19919;-75
2023/05/24 05:48:03;;;;;;;;;;;12.60;68.20;;;;;;5089782;28;20321;-75
2023/05/24 05:50:29;;;;;;;;;;;12.60;68.10;;;;;;5089712;28;19912;-75
2023/05/24 05:52:55;;;;;;;;;;;12.70;68.40;;;;;;5089145;28;20199;-74
2023/05/24 05:55:21;;;;;;;;;;;13.10;68.20;;;;;;5088041;28;19955;-75
2023/05/24 05:57:46;;;;;;;;;;;13.50;67.70;;;;;;5089232;28;19999;-75
2023/05/24 06:00:12;;;;;;;;;;;13.90;67.60;;;;;;5089011;28;19922;-75
2023/05/24 06:02:37;;;;;;;;;;;14.40;67.10;;;;;;5087455;28;20407;-74
2023/05/24 06:05:03;;;;;;;;;;;15.10;67.30;;;;;;5089131;28;19960;-75
2023/05/24 06:07:29;;;;;;;;;;;16.00;67.00;;;;;;5088915;28;20250;-75
2023/05/24 06:09:55;;;;;;;;;;;17.00;66.30;;;;;;5088881;28;19920;-74
2023/05/24 06:12:20;;;;;;;;;;;17.70;65.50;;;;;;5087180;28;19913;-74
2023/05/24 06:14:49;;;;;;;;;;;18.30;65.10;;;;;;5087534;28;19943;-75
2023/05/24 06:17:15;;;;;;;;;;;18.90;64.90;;;;;;5089007;28;20431;-75
2023/05/24 06:19:42;;;;;;;;;;;19.40;64.50;;;;;;5089159;28;19995;-75
2023/05/24 06:22:08;;;;;;;;;;;19.60;64.00;;;;;;5088759;28;20352;-75
2023/05/24 06:24:33;;;;;;;;;;;19.50;64.10;;;;;;5088834;28;19971;-76
2023/05/24 06:26:59;;;;;;;;;;;19.70;64.80;;;;;;5088566;28;20152;-75
2023/05/24 06:29:24;;;;;;;;;;;20.20;64.80;;;;;;5088559;28;19908;-75
2023/05/24 06:31:50;;;;;;;;;;;20.70;64.70;;;;;;5088361;28;20007;-75
2023/05/24 06:34:19;;;;;;;;;;;21.10;64.40;;;;;;5088275;28;19912;-76
2023/05/24 06:36:47;;;;;;;;;;;21.40;64.10;;;;;;5088494;28;20298;-75
2023/05/24 06:39:13;;;;;;;;;;;21.60;64.10;;;;;;5088243;28;19916;-75
2023/05/24 06:41:39;;;;;;;;;;;21.80;64.20;;;;;;5088405;28;19919;-75
2023/05/24 06:44:05;;;;;;;;;;;22.10;64.20;;;;;;5069995;28;20002;-71
2023/05/24 06:46:31;;;;;;;;;;;22.30;64.10;;;;;;5088338;28;20010;-71
2023/05/24 06:48:57;;;;;;;;;;;22.50;64.20;;;;;;5088199;28;19912;-71
2023/05/24 06:51:22;;;;;;;;;;;22.90;64.20;;;;;;5087988;28;19919;-71
2023/05/24 06:53:48;;;;;;;;;;;23.10;64.10;;;;;;5086609;28;20023;-71
2023/05/24 06:56:14;;;;;;;;;;;23.40;64.20;;;;;;5087780;28;19908;-71
2023/05/24 06:58:40;;;;;;;;;;;23.40;63.80;;;;;;5087641;28;19916;-71
2023/05/24 07:01:06;;;;;;;;;;;23.10;63.50;;;;;;5086037;28;19941;-71
2023/05/24 07:03:31;;;;;;;;;;;22.30;63.70;;;;;;5087482;28;19947;-70
2023/05/24 07:05:57;;;;;;;;;;;21.70;64.70;;;;;;5087786;28;20398;-71
2023/05/24 07:08:26;;;;;;;;;;;21.30;65.10;;;;;;5087698;28;19916;-71
2023/05/24 07:10:55;;;;;;;;;;;21.10;65.90;;;;;;5086331;28;19924;-71
2023/05/24 07:13:20;;;;;;;;;;;21.60;66.80;;;;;;5086245;28;20005;-71
2023/05/24 07:15:46;;;;;;;;;;;22.20;66.30;;;;;;5087681;28;20079;-71
2023/05/24 07:18:12;;;;;;;;;;;22.40;66.00;;;;;;5087716;28;19920;-71
2023/05/24 07:20:37;;;;;;;;;;;22.80;65.80;;;;;;5087102;28;19912;-71
2023/05/24 07:23:03;;;;;;;;;;;23.10;65.70;;;;;;5087644;28;19916;-71
2023/05/24 07:25:30;;;;;;;;;;;23.50;65.90;;;;;;5087672;28;20287;-71
2023/05/24 07:27:55;;;;;;;;;;;24.10;66.20;;;;;;5087677;28;19919;-71
2023/05/24 07:30:21;;;;;;;;;;;24.60;65.90;;;;;;5087852;28;19916;-71
2023/05/24 07:32:47;;;;;;;;;;;24.90;65.60;;;;;;5087394;28;20298;-71
2023/05/24 07:35:12;;;;;;;;;;;25.20;66.20;;;;;;5087135;28;20015;-71
2023/05/24 07:37:38;;;;;;;;;;;25.40;65.80;;;;;;5087399;28;19920;-71
2023/05/24 07:40:05;;;;;;;;;;;25.70;66.10;;;;;;5087099;28;19916;-71
2023/05/24 07:42:31;;;;;;;;;;;25.10;65.30;;;;;;5087207;28;19951;-71
2023/05/24 07:44:56;;;;;;;;;;;24.50;65.60;;;;;;5087216;28;20328;-70
2023/05/24 07:47:22;;;;;;;;;;;23.90;66.30;;;;;;5087328;28;19916;-70
2023/05/24 07:49:47;;;;;;;;;;;23.90;67.20;;;;;;5087060;28;19916;-70
2023/05/24 07:52:13;;;;;;;;;;;23.80;67.30;;;;;;5085967;28;19919;-70
2023/05/24 07:54:39;;;;;;;;;;;24.00;67.70;;;;;;5087176;28;19912;-70
2023/05/24 07:57:06;;;;;;;;;;;24.20;67.40;;;;;;5087192;28;19919;-70
2023/05/24 07:59:32;;;;;;;;;;;24.20;67.20;;;;;;5086731;28;19920;-70
2023/05/24 08:02:02;;;;;;;;;;;24.30;67.30;;;;;;5086895;28;19928;-70
2023/05/24 08:04:28;;;;;;;;;;;24.30;67.30;;;;;;5088183;28;20003;-70
2023/05/24 08:06:54;;;;;;;;;;;24.40;67.30;;;;;;5087439;28;20050;-70
2023/05/24 08:09:21;;;;;;;;;;;24.10;67.00;;;;;;5086860;28;20272;-71
2023/05/24 08:11:46;;;;;;;;;;;23.60;67.10;;;;;;5087187;28;19935;-71
2023/05/24 08:14:12;;;;;;;;;;;23.00;67.40;;;;;;5087325;28;19992;-71
2023/05/24 08:16:38;;;;;;;;;;;22.50;67.80;;;;;;5087614;28;20003;-70
2023/05/24 08:19:03;;;;;;;;;;;22.00;68.00;;;;;;5087279;28;20345;-70
2023/05/24 08:21:29;;;;;;;;;;;21.50;68.70;;;;;;5087534;28;19957;-70
2023/05/24 08:23:55;;;;;;;;;;;21.20;69.30;;;;;;5087297;28;20364;-71
2023/05/24 08:26:23;;;;;;;;;;;21.10;69.30;;;;;;5086998;28;19930;-70
2023/05/24 08:28:48;;;;;;;;;;;21.00;69.20;;;;;;5086980;28;20076;-71
2023/05/24 08:31:15;;;;;;;;;;;20.90;69.10;;;;;;5087976;28;20006;-71
2023/05/24 08:33:41;;;;;;;;;;;20.80;68.90;;;;;;5090863;28;19958;-71
2023/05/24 08:36:07;;;;;;;;;;;20.60;69.00;;;;;;5088250;28;19912;-71
2023/05/24 08:38:32;;;;;;;;;;;20.50;69.10;;;;;;5088985;28;19916;-71
2023/05/24 08:40:58;;;;;;;;;;;20.30;69.20;;;;;;5090767;28;19912;-70
2023/05/24 08:43:25;;;;;;;;;;;20.30;69.30;;;;;;5090941;28;20317;-71
2023/05/24 08:45:52;;;;;;;;;;;20.40;69.60;;;;;;5089293;28;19957;-71
2023/05/24 08:48:18;;;;;;;;;;;20.90;69.80;;;;;;5090520;28;19912;-72
2023/05/24 08:50:43;;;;;;;;;;;21.30;69.90;;;;;;5090370;28;19916;-71
2023/05/24 08:53:10;;;;;;;;;;;22.10;70.10;;;;;;5090319;28;20313;-71
2023/05/24 08:55:36;;;;;;;;;;;22.40;69.60;;;;;;5089054;28;19916;-71
2023/05/24 08:58:02;;;;;;;;;;;22.20;69.40;;;;;;5090462;28;20106;-72
2023/05/24 09:00:28;;;;;;;;;;;22.00;69.50;;;;;;5088126;28;19935;-71
2023/05/24 09:02:54;;;;;;;;;;;21.80;69.70;;;;;;5088592;28;19924;-71
2023/05/24 09:05:20;;;;;;;;;;;22.00;69.80;;;;;;5088593;28;19916;-71
2023/05/24 09:07:47;;;;;;;;;;;22.10;69.60;;;;;;5085859;28;19917;-71
2023/05/24 09:10:13;;;;;;;;;;;22.20;69.50;;;;;;5090114;28;19908;-71
2023/05/24 09:12:41;;;;;;;;;;;22.20;69.40;;;;;;5090163;28;19982;-71
2023/05/24 09:15:07;;;;;;;;;;;22.40;69.40;;;;;;5087293;28;19912;-72
2023/05/24 09:17:33;;;;;;;;;;;22.40;69.10;;;;;;5090311;28;19935;-71
2023/05/24 09:19:59;;;;;;;;;;;22.10;68.90;;;;;;5089857;28;19973;-71
2023/05/24 09:22:27;;;;;;;;;;;22.10;70.20;;;;;;5089863;28;19928;-73
2023/05/24 09:24:56;;;;;;;;;;;23.00;71.10;;;;;;5090193;28;19912;-76
2023/05/24 09:27:22;;;;;;;;;;;23.90;70.90;;;;;;5089597;28;20318;-73
2023/05/24 09:29:48;;;;;;;;;;;24.20;69.70;;;;;;5089545;28;19912;-73
2023/05/24 09:32:14;;;;;;;;;;;24.00;69.00;;;;;;5093569;28;19916;-73
2023/05/24 09:34:46;;;;;;;;;;;23.80;69.10;;;;;;5089247;28;20302;-73
2023/05/24 09:37:16;;;;;;;;;;;23.80;69.10;;;;;;5088547;28;19912;-73
2023/05/24 09:39:43;;;;;;;;;;;23.60;69.00;;;;;;5089323;28;19920;-73
2023/05/24 09:42:13;;;;;;;;;;;23.30;68.80;;;;;;5089471;28;19914;-74
2023/05/24 09:44:43;;;;;;;;;;;23.00;69.00;;;;;;5086653;28;19916;-75
2023/05/24 09:47:08;;;;;;;;;;;22.80;69.50;;;;;;5087994;28;19914;-74
2023/05/24 09:49:37;;;;;;;;;;;22.60;69.70;;;;;;5089147;28;19983;-74
2023/05/24 09:52:03;;;;;;;;;;;22.90;70.50;;;;;;5089035;28;20372;-74
2023/05/24 09:54:30;;;;;;;;;;;23.00;69.90;;;;;;5089192;28;19955;-74
2023/05/24 09:56:58;;;;;;;;;;;23.00;69.60;;;;;;5089095;28;19954;-74
2023/05/24 09:59:24;;;;;;;;;;;22.90;69.30;;;;;;5089047;28;20344;-74
2023/05/24 10:01:55;;;;;;;;;;;22.60;69.00;;;;;;5088641;28;19985;-72
2023/05/24 10:04:31;;;;;;;;;;;22.50;69.50;;;;;;5089295;28;19924;-72
2023/05/24 10:06:56;;;;;;;;;;;23.20;70.50;;;;;;5089544;28;19922;-75
2023/05/24 10:09:23;;;;;;;;;;;23.40;69.70;;;;;;5089174;28;19950;-72
2023/05/24 10:11:49;;;;;;;;;;;23.30;69.20;;;;;;5088951;28;20327;-72
2023/05/24 10:14:16;;;;;;;;;;;23.10;69.00;;;;;;5089113;28;19912;-72
2023/05/24 10:16:42;;;;;;;;;;;22.50;69.00;;;;;;5089389;28;19969;-72
2023/05/24 10:19:07;;;;;;;;;;;22.20;69.20;;;;;;5089206;28;20330;-72
2023/05/24 10:21:36;;;;;;;;;;;22.00;69.40;;;;;;5089084;28;19912;-72
2023/05/24 10:24:02;;;;;;;;;;;21.90;69.50;;;;;;5089275;28;20071;-73
2023/05/24 10:26:30;;;;;;;;;;;21.70;69.40;;;;;;5089248;28;19912;-72
2023/05/24 10:28:59;;;;;;;;;;;21.70;69.40;;;;;;5089166;28;19908;-73
2023/05/24 10:31:30;;;;;;;;;;;21.70;69.30;;;;;;5089141;28;19908;-73
2023/05/24 10:33:57;;;;;;;;;;;21.60;69.20;;;;;;5088450;28;19939;-73
2023/05/24 10:36:24;;;;;;;;;;;21.50;69.30;;;;;;5088629;28;19919;-72
2023/05/24 10:38:51;;;;;;;;;;;21.30;69.00;;;;;;5088965;28;19922;-72
2023/05/24 10:41:17;;;;;;;;;;;21.00;69.60;;;;;;5089140;28;19912;-72
2023/05/24 10:43:44;;;;;;;;;;;20.90;69.70;;;;;;5088472;28;19908;-73
2023/05/24 10:46:10;;;;;;;;;;;21.10;70.00;;;;;;5088415;28;19908;-73
2023/05/24 10:48:39;;;;;;;;;;;21.20;69.60;;;;;;5088312;28;19974;-75
2023/05/24 10:51:23;;;;;;;;;;;21.10;69.80;;;;;;5088634;28;19912;-72
2023/05/24 10:53:49;;;;;;;;;;;21.10;69.80;;;;;;5087741;28;19958;-72
2023/05/24 10:56:15;;;;;;;;;;;21.30;69.90;;;;;;5087038;28;19923;-73
2023/05/24 10:58:41;;;;;;;;;;;21.30;69.50;;;;;;5088311;28;20446;-73
2023/05/24 11:01:12;;;;;;;;;;;21.30;69.90;;;;;;5087531;28;20002;-73
2023/05/24 11:03:39;;;;;;;;;;;21.50;70.00;;;;;;5085860;28;19967;-72
2023/05/24 11:06:05;;;;;;;;;;;21.80;69.80;;;;;;5087370;28;19961;-73
2023/05/24 11:08:34;;;;;;;;;;;22.10;69.60;;;;;;5087344;28;20357;-72
2023/05/24 11:11:06;;;;;;;;;;;22.20;69.40;;;;;;5085547;28;19912;-73
2023/05/24 11:13:32;;;;;;;;;;;22.30;69.20;;;;;;5087261;28;19927;-74
2023/05/24 11:15:59;;;;;;;;;;;22.40;69.30;;;;;;5087057;28;19908;-75
2023/05/24 11:18:24;;;;;;;;;;;22.50;69.30;;;;;;5088475;28;19920;-75
2023/05/24 11:20:51;;;;;;;;;;;23.00;70.10;;;;;;5087008;28;19908;-74
2023/05/24 11:23:16;;;;;;;;;;;23.60;70.00;;;;;;5088160;28;19912;-74
2023/05/24 11:25:43;;;;;;;;;;;23.90;69.60;;;;;;5086634;28;20422;-74
2023/05/24 11:28:10;;;;;;;;;;;24.20;69.30;;;;;;5086905;28;20280;-72
2023/05/24 11:30:42;;;;;;;;;;;24.10;69.50;;;;;;5086470;28;19997;-73
2023/05/24 11:33:14;;;;;;;;;;;24.20;69.50;;;;;;5088224;28;19915;-73
2023/05/24 11:35:39;;;;;;;;;;;24.20;69.90;;;;;;5088090;28;19911;-73
2023/05/24 11:38:10;;;;;;;;;;;25.00;70.90;;;;;;5088546;28;19957;-70
2023/05/24 11:40:37;;;;;;;;;;;26.00;71.30;;;;;;5088128;28;20003;-73
2023/05/24 11:43:05;;;;;;;;;;;27.00;71.20;;;;;;5088135;28;19916;-74
2023/05/24 11:45:31;;;;;;;;;;;27.20;70.10;;;;;;5088363;28;19931;-75
2023/05/24 11:47:56;;;;;;;;;;;27.10;69.70;;;;;;5086309;28;19921;-73
2023/05/24 11:50:22;;;;;;;;;;;27.00;69.70;;;;;;5088553;28;19908;-75
2023/05/24 11:52:48;;;;;;;;;;;26.90;69.50;;;;;;5088608;28;19916;-73
2023/05/24 11:55:15;;;;;;;;;;;26.60;69.20;;;;;;5087927;28;19970;-72
2023/05/24 11:57:44;;;;;;;;;;;26.30;69.30;;;;;;5087716;28;19955;-73
2023/05/24 12:00:15;;;;;;;;;;;26.30;69.80;;;;;;5087267;28;20007;-73
2023/05/24 12:02:41;;;;;;;;;;;26.10;70.10;;;;;;5087830;28;19977;-73
2023/05/24 12:05:08;;;;;;;;;;;25.80;70.10;;;;;;5087896;28;19916;-72
2023/05/24 12:07:35;;;;;;;;;;;25.90;70.90;;;;;;5090999;28;20371;-73
2023/05/24 12:10:02;;;;;;;;;;;26.40;71.10;;;;;;5091949;28;19912;-74
2023/05/24 12:12:27;;;;;;;;;;;26.70;71.00;;;;;;5091214;28;20269;-73
2023/05/24 12:14:54;;;;;;;;;;;26.80;70.90;;;;;;5091457;28;19957;-72
2023/05/24 12:17:20;;;;;;;;;;;27.10;71.40;;;;;;5090728;28;19915;-73
2023/05/24 12:19:47;;;;;;;;;;;27.80;71.70;;;;;;5090918;28;19916;-73
2023/05/24 12:22:13;;;;;;;;;;;28.50;71.90;;;;;;5089817;28;20248;-76
2023/05/24 12:24:38;;;;;;;;;;;28.60;71.60;;;;;;5091493;28;19923;-74
2023/05/24 12:27:08;;;;;;;;;;;28.50;71.60;;;;;;5090742;28;20006;-73
2023/05/24 12:29:35;;;;;;;;;;;28.60;72.10;;;;;;5088286;28;19965;-74
2023/05/24 12:32:01;;;;;;;;;;;29.10;72.60;;;;;;5090340;28;19908;-73
2023/05/24 12:34:27;;;;;;;;;;;29.50;72.40;;;;;;5090875;28;19960;-72
2023/05/24 12:36:54;;;;;;;;;;;29.90;72.60;;;;;;5088355;28;19908;-75
2023/05/24 12:39:21;;;;;;;;;;;30.40;72.50;;;;;;5090958;28;20284;-72
2023/05/24 12:41:53;;;;;;;;;;;30.70;72.70;;;;;;5091239;28;19915;-72
2023/05/24 12:44:25;;;;;;;;;;;31.10;72.50;;;;;;5091319;28;19919;-72
2023/05/24 12:46:52;;;;;;;;;;;31.20;72.30;;;;;;5091195;28;19920;-71
2023/05/24 12:49:17;;;;;;;;;;;31.00;72.00;;;;;;5091016;28;19915;-72
2023/05/24 12:51:43;;;;;;;;;;;30.80;71.90;;;;;;5090705;28;19913;-72
2023/05/24 12:54:09;;;;;;;;;;;30.60;72.10;;;;;;5091113;28;19908;-72
2023/05/24 12:56:34;;;;;;;;;;;30.60;72.20;;;;;;5091034;28;19912;-72
2023/05/24 12:59:00;;;;;;;;;;;29.90;72.10;;;;;;5090800;28;19937;-72
2023/05/24 13:01:26;;;;;;;;;;;29.20;73.30;;;;;;5090885;28;20269;-73
2023/05/24 13:03:52;;;;;;;;;;;29.00;74.00;;;;;;5090912;28;19922;-72
2023/05/24 13:06:18;;;;;;;;;;;28.30;73.10;;;;;;5090960;28;20370;-73
2023/05/24 13:08:44;;;;;;;;;;;27.60;73.30;;;;;;5090772;28;19915;-73
2023/05/24 13:11:10;;;;;;;;;;;27.10;73.90;;;;;;5090520;28;19958;-74
2023/05/24 13:13:37;;;;;;;;;;;27.20;74.70;;;;;;5072147;28;19939;-73
2023/05/24 13:16:06;;;;;;;;;;;27.50;74.40;;;;;;5090330;28;19919;-73
2023/05/24 13:18:31;;;;;;;;;;;27.70;73.50;;;;;;5088716;28;20508;-73
2023/05/24 13:20:59;;;;;;;;;;;27.40;72.70;;;;;;5090709;28;19912;-73
2023/05/24 13:23:27;;;;;;;;;;;27.20;73.20;;;;;;5090089;28;19936;-72
2023/05/24 13:25:53;;;;;;;;;;;27.10;72.70;;;;;;5090016;28;19995;-73
2023/05/24 13:28:18;;;;;;;;;;;27.10;72.40;;;;;;5090433;28;19995;-74
2023/05/24 13:30:46;;;;;;;;;;;27.00;71.90;;;;;;5090393;28;19995;-74
2023/05/24 13:33:12;;;;;;;;;;;26.70;71.60;;;;;;5090198;28;19908;-73
2023/05/24 13:35:38;;;;;;;;;;;26.10;71.60;;;;;;5090143;28;20225;-72
2023/05/24 13:38:04;;;;;;;;;;;25.70;71.90;;;;;;5089924;28;19924;-72
2023/05/24 13:40:30;;;;;;;;;;;25.30;72.10;;;;;;5089816;28;19912;-74
2023/05/24 13:42:56;;;;;;;;;;;25.10;72.60;;;;;;5089530;28;20332;-74
2023/05/24 13:45:22;;;;;;;;;;;24.90;72.30;;;;;;5088320;28;19962;-73
2023/05/24 13:47:48;;;;;;;;;;;24.80;72.70;;;;;;5088244;28;19923;-75
2023/05/24 13:50:13;;;;;;;;;;;24.80;72.60;;;;;;5089148;28;19912;-74
2023/05/24 13:52:39;;;;;;;;;;;25.00;72.70;;;;;;5089238;28;20556;-75
2023/05/24 13:55:05;;;;;;;;;;;25.10;72.20;;;;;;5087186;28;20453;-74
2023/05/24 13:57:31;;;;;;;;;;;25.10;72.10;;;;;;5089440;28;19912;-75
2023/05/24 13:59:58;;;;;;;;;;;25.20;72.20;;;;;;5089624;28;19991;-76
2023/05/24 14:02:24;;;;;;;;;;;25.40;71.70;;;;;;5089239;28;19946;-75
2023/05/24 14:04:49;;;;;;;;;;;25.30;71.30;;;;;;5089232;28;20003;-75
2023/05/24 14:07:15;;;;;;;;;;;25.40;71.40;;;;;;5089507;28;19916;-74
2023/05/24 14:09:44;;;;;;;;;;;25.30;71.20;;;;;;5089300;28;19913;-74
2023/05/24 14:12:10;;;;;;;;;;;25.10;70.70;;;;;;5089132;28;19912;-74
2023/05/24 14:14:35;;;;;;;;;;;24.50;70.80;;;;;;5089241;28;19934;-73